sensor_id;sensor_type;location;lat;lon;timestamp;P1;durP1;ratioP1;P2;durP2;ratioP2
68178;SDS011;69812;42.632;23.440;2024-01-16T00:00:45;26.23;;;10.60;;
68178;SDS011;69812;42.632;23.440;2024-01-16T00:03:10;20.95;;;9.40;;
68178;SDS011;69812;42.632;23.440;2024-01-16T00:05:35;27.73;;;11.80;;
68178;SDS011;69812;42.632;23.440;2024-01-16T00:08:01;28.10;;;10.65;;
68178;SDS011;69812;42.632;23.440;2024-01-16T00:10:26;24.85;;;10.98;;
68178;SDS011;69812;42.632;23.440;2024-01-16T00:12:52;21.95;;;11.00;;
68178;SDS011;69812;42.632;23.440;2024-01-16T00:15:17;25.13;;;11.07;;
68178;SDS011;69812;42.632;23.440;2024-01-16T00:17:42;24.85;;;10.25;;
68178;SDS011;69812;42.632;23.440;2024-01-16T00:20:08;24.92;;;10.52;;
68178;SDS011;69812;42.632;23.440;2024-01-16T00:22:34;20.85;;;9.73;;
68178;SDS011;69812;42.632;23.440;2024-01-16T00:24:59;27.65;;;10.35;;
68178;SDS011;69812;42.632;23.440;2024-01-16T00:27:24;22.77;;;11.02;;
68178;SDS011;69812;42.632;23.440;2024-01-16T00:29:50;23.27;;;10.13;;
68178;SDS011;69812;42.632;23.440;2024-01-16T00:32:15;24.95;;;9.82;;
68178;SDS011;69812;42.632;23.440;2024-01-16T00:34:41;27.25;;;10.02;;
68178;SDS011;69812;42.632;23.440;2024-01-16T00:37:07;23.58;;;10.30;;
68178;SDS011;69812;42.632;23.440;2024-01-16T00:39:33;22.38;;;9.98;;
68178;SDS011;69812;42.632;23.440;2024-01-16T00:41:58;22.98;;;10.85;;
68178;SDS011;69812;42.632;23.440;2024-01-16T00:44:24;24.33;;;10.88;;
68178;SDS011;69812;42.632;23.440;2024-01-16T00:46:50;24.10;;;10.15;;
68178;SDS011;69812;42.632;23.440;2024-01-16T00:49:15;24.85;;;10.18;;
68178;SDS011;69812;42.632;23.440;2024-01-16T00:51:41;24.05;;;10.02;;
68178;SDS011;69812;42.632;23.440;2024-01-16T00:54:06;23.00;;;10.95;;
68178;SDS011;69812;42.632;23.440;2024-01-16T00:56:35;24.30;;;11.25;;
68178;SDS011;69812;42.632;23.440;2024-01-16T00:59:01;24.00;;;10.68;;
68178;SDS011;69812;42.632;23.440;2024-01-16T01:01:26;25.45;;;10.38;;
68178;SDS011;69812;42.632;23.440;2024-01-16T01:03:52;24.90;;;11.00;;
68178;SDS011;69812;42.632;23.440;2024-01-16T01:06:17;25.48;;;10.98;;
68178;SDS011;69812;42.632;23.440;2024-01-16T01:08:43;20.05;;;9.57;;
68178;SDS011;69812;42.632;23.440;2024-01-16T01:11:08;20.23;;;8.98;;
68178;SDS011;69812;42.632;23.440;2024-01-16T01:13:33;19.92;;;8.77;;
68178;SDS011;69812;42.632;23.440;2024-01-16T01:15:59;22.10;;;9.20;;
68178;SDS011;69812;42.632;23.440;2024-01-16T01:18:25;21.75;;;9.70;;
68178;SDS011;69812;42.632;23.440;2024-01-16T01:20:51;19.60;;;9.73;;
68178;SDS011;69812;42.632;23.440;2024-01-16T01:23:16;19.73;;;8.32;;
68178;SDS011;69812;42.632;23.440;2024-01-16T01:25:42;20.45;;;8.82;;
68178;SDS011;69812;42.632;23.440;2024-01-16T01:28:07;17.58;;;8.18;;
68178;SDS011;69812;42.632;23.440;2024-01-16T01:30:33;19.00;;;8.63;;
68178;SDS011;69812;42.632;23.440;2024-01-16T01:32:59;20.58;;;8.15;;
68178;SDS011;69812;42.632;23.440;2024-01-16T01:35:24;16.70;;;7.22;;
68178;SDS011;69812;42.632;23.440;2024-01-16T01:37:49;17.08;;;7.25;;
68178;SDS011;69812;42.632;23.440;2024-01-16T01:40:15;19.02;;;8.00;;
68178;SDS011;69812;42.632;23.440;2024-01-16T01:42:43;23.67;;;10.48;;
68178;SDS011;69812;42.632;23.440;2024-01-16T01:45:10;18.83;;;8.77;;
68178;SDS011;69812;42.632;23.440;2024-01-16T01:47:36;20.00;;;8.40;;
68178;SDS011;69812;42.632;23.440;2024-01-16T01:50:02;18.58;;;7.85;;
68178;SDS011;69812;42.632;23.440;2024-01-16T01:52:30;18.15;;;8.35;;
68178;SDS011;69812;42.632;23.440;2024-01-16T01:54:56;20.63;;;8.13;;
68178;SDS011;69812;42.632;23.440;2024-01-16T01:57:21;16.23;;;7.32;;
68178;SDS011;69812;42.632;23.440;2024-01-16T01:59:47;20.05;;;9.13;;
68178;SDS011;69812;42.632;23.440;2024-01-16T02:02:15;17.83;;;8.05;;
68178;SDS011;69812;42.632;23.440;2024-01-16T02:04:42;17.13;;;7.32;;
68178;SDS011;69812;42.632;23.440;2024-01-16T02:07:09;34.90;;;12.95;;
68178;SDS011;69812;42.632;23.440;2024-01-16T02:09:35;24.73;;;10.43;;
68178;SDS011;69812;42.632;23.440;2024-01-16T02:12:01;19.20;;;8.60;;
68178;SDS011;69812;42.632;23.440;2024-01-16T02:14:26;16.73;;;7.65;;
68178;SDS011;69812;42.632;23.440;2024-01-16T02:16:52;26.00;;;10.63;;
68178;SDS011;69812;42.632;23.440;2024-01-16T02:19:18;18.70;;;8.90;;
68178;SDS011;69812;42.632;23.440;2024-01-16T02:21:45;17.67;;;8.30;;
68178;SDS011;69812;42.632;23.440;2024-01-16T02:24:15;20.23;;;8.90;;
68178;SDS011;69812;42.632;23.440;2024-01-16T02:26:42;21.67;;;9.35;;
68178;SDS011;69812;42.632;23.440;2024-01-16T02:29:08;20.02;;;8.20;;
68178;SDS011;69812;42.632;23.440;2024-01-16T02:31:34;17.95;;;8.30;;
68178;SDS011;69812;42.632;23.440;2024-01-16T02:34:00;18.10;;;8.68;;
68178;SDS011;69812;42.632;23.440;2024-01-16T02:36:26;20.00;;;9.43;;
68178;SDS011;69812;42.632;23.440;2024-01-16T02:38:52;17.67;;;8.02;;
68178;SDS011;69812;42.632;23.440;2024-01-16T02:41:17;19.52;;;8.55;;
68178;SDS011;69812;42.632;23.440;2024-01-16T02:43:43;17.85;;;8.20;;
68178;SDS011;69812;42.632;23.440;2024-01-16T02:46:09;18.70;;;7.95;;
68178;SDS011;69812;42.632;23.440;2024-01-16T02:48:35;18.17;;;8.18;;
68178;SDS011;69812;42.632;23.440;2024-01-16T02:51:01;22.02;;;9.05;;
68178;SDS011;69812;42.632;23.440;2024-01-16T02:53:28;16.10;;;8.25;;
68178;SDS011;69812;42.632;23.440;2024-01-16T02:55:54;20.30;;;9.55;;
68178;SDS011;69812;42.632;23.440;2024-01-16T02:58:20;22.15;;;9.57;;
68178;SDS011;69812;42.632;23.440;2024-01-16T03:00:46;18.80;;;8.27;;
68178;SDS011;69812;42.632;23.440;2024-01-16T03:03:11;19.02;;;8.55;;
68178;SDS011;69812;42.632;23.440;2024-01-16T03:05:37;18.00;;;8.95;;
68178;SDS011;69812;42.632;23.440;2024-01-16T03:08:03;22.60;;;9.50;;
68178;SDS011;69812;42.632;23.440;2024-01-16T03:10:28;18.38;;;8.35;;
68178;SDS011;69812;42.632;23.440;2024-01-16T03:12:54;17.67;;;7.07;;
68178;SDS011;69812;42.632;23.440;2024-01-16T03:15:19;18.42;;;7.82;;
68178;SDS011;69812;42.632;23.440;2024-01-16T03:17:45;15.05;;;7.43;;
68178;SDS011;69812;42.632;23.440;2024-01-16T03:20:11;16.83;;;7.18;;
68178;SDS011;69812;42.632;23.440;2024-01-16T03:22:37;15.95;;;7.68;;
68178;SDS011;69812;42.632;23.440;2024-01-16T03:25:02;14.38;;;7.40;;
68178;SDS011;69812;42.632;23.440;2024-01-16T03:27:28;17.88;;;7.88;;
68178;SDS011;69812;42.632;23.440;2024-01-16T03:29:53;17.52;;;8.23;;
68178;SDS011;69812;42.632;23.440;2024-01-16T03:32:18;13.57;;;6.88;;
68178;SDS011;69812;42.632;23.440;2024-01-16T03:34:44;11.77;;;5.70;;
68178;SDS011;69812;42.632;23.440;2024-01-16T03:37:09;11.60;;;5.38;;
68178;SDS011;69812;42.632;23.440;2024-01-16T03:39:35;9.35;;;4.82;;
68178;SDS011;69812;42.632;23.440;2024-01-16T03:42:00;9.38;;;4.93;;
68178;SDS011;69812;42.632;23.440;2024-01-16T03:44:26;8.80;;;4.78;;
68178;SDS011;69812;42.632;23.440;2024-01-16T03:46:51;10.20;;;4.38;;
68178;SDS011;69812;42.632;23.440;2024-01-16T03:49:17;9.90;;;5.25;;
68178;SDS011;69812;42.632;23.440;2024-01-16T03:51:42;8.77;;;4.75;;
68178;SDS011;69812;42.632;23.440;2024-01-16T03:54:14;9.52;;;4.93;;
68178;SDS011;69812;42.632;23.440;2024-01-16T03:56:39;10.25;;;4.28;;
68178;SDS011;69812;42.632;23.440;2024-01-16T03:59:05;8.50;;;3.72;;
68178;SDS011;69812;42.632;23.440;2024-01-16T04:01:31;7.13;;;4.20;;
68178;SDS011;69812;42.632;23.440;2024-01-16T04:04:01;7.35;;;3.67;;
68178;SDS011;69812;42.632;23.440;2024-01-16T04:06:27;6.53;;;3.40;;
68178;SDS011;69812;42.632;23.440;2024-01-16T04:08:54;5.53;;;3.22;;
68178;SDS011;69812;42.632;23.440;2024-01-16T04:11:19;6.30;;;3.55;;
68178;SDS011;69812;42.632;23.440;2024-01-16T04:13:45;5.13;;;3.67;;
68178;SDS011;69812;42.632;23.440;2024-01-16T04:16:11;5.18;;;3.00;;
68178;SDS011;69812;42.632;23.440;2024-01-16T04:18:38;5.07;;;2.80;;
68178;SDS011;69812;42.632;23.440;2024-01-16T04:21:05;4.63;;;2.78;;
68178;SDS011;69812;42.632;23.440;2024-01-16T04:23:34;6.47;;;3.35;;
68178;SDS011;69812;42.632;23.440;2024-01-16T04:25:59;3.70;;;2.58;;
68178;SDS011;69812;42.632;23.440;2024-01-16T04:28:25;6.28;;;2.70;;
68178;SDS011;69812;42.632;23.440;2024-01-16T04:30:51;3.92;;;2.40;;
68178;SDS011;69812;42.632;23.440;2024-01-16T04:33:16;5.28;;;3.13;;
68178;SDS011;69812;42.632;23.440;2024-01-16T04:35:42;3.78;;;2.22;;
68178;SDS011;69812;42.632;23.440;2024-01-16T04:38:07;4.63;;;2.50;;
68178;SDS011;69812;42.632;23.440;2024-01-16T04:40:32;4.13;;;2.65;;
68178;SDS011;69812;42.632;23.440;2024-01-16T04:42:59;5.00;;;2.53;;
68178;SDS011;69812;42.632;23.440;2024-01-16T04:45:24;3.80;;;2.40;;
68178;SDS011;69812;42.632;23.440;2024-01-16T04:47:50;3.60;;;2.25;;
68178;SDS011;69812;42.632;23.440;2024-01-16T04:50:15;3.60;;;2.10;;
68178;SDS011;69812;42.632;23.440;2024-01-16T04:52:40;3.53;;;2.40;;
68178;SDS011;69812;42.632;23.440;2024-01-16T04:55:06;3.80;;;2.30;;
68178;SDS011;69812;42.632;23.440;2024-01-16T04:57:32;2.85;;;2.00;;
68178;SDS011;69812;42.632;23.440;2024-01-16T04:59:58;3.85;;;2.05;;
68178;SDS011;69812;42.632;23.440;2024-01-16T05:02:23;3.13;;;1.40;;
68178;SDS011;69812;42.632;23.440;2024-01-16T05:04:49;3.47;;;2.10;;
68178;SDS011;69812;42.632;23.440;2024-01-16T05:09:43;3.22;;;1.98;;
68178;SDS011;69812;42.632;23.440;2024-01-16T05:12:11;3.88;;;1.88;;
68178;SDS011;69812;42.632;23.440;2024-01-16T05:14:36;2.92;;;1.85;;
68178;SDS011;69812;42.632;23.440;2024-01-16T05:17:02;3.80;;;1.80;;
68178;SDS011;69812;42.632;23.440;2024-01-16T05:19:27;2.70;;;1.63;;
68178;SDS011;69812;42.632;23.440;2024-01-16T05:21:52;3.13;;;1.80;;
68178;SDS011;69812;42.632;23.440;2024-01-16T05:24:18;2.85;;;1.67;;
68178;SDS011;69812;42.632;23.440;2024-01-16T05:26:43;2.55;;;1.73;;
68178;SDS011;69812;42.632;23.440;2024-01-16T05:29:09;2.75;;;1.70;;
68178;SDS011;69812;42.632;23.440;2024-01-16T05:31:44;2.13;;;1.13;;
68178;SDS011;69812;42.632;23.440;2024-01-16T05:34:09;1.83;;;1.23;;
68178;SDS011;69812;42.632;23.440;2024-01-16T05:36:35;1.88;;;1.33;;
68178;SDS011;69812;42.632;23.440;2024-01-16T05:39:01;1.42;;;0.95;;
68178;SDS011;69812;42.632;23.440;2024-01-16T05:41:27;2.50;;;1.50;;
68178;SDS011;69812;42.632;23.440;2024-01-16T05:43:57;2.63;;;1.48;;
68178;SDS011;69812;42.632;23.440;2024-01-16T05:46:22;2.60;;;1.58;;
68178;SDS011;69812;42.632;23.440;2024-01-16T05:48:47;2.42;;;1.48;;
68178;SDS011;69812;42.632;23.440;2024-01-16T05:51:13;2.25;;;1.45;;
68178;SDS011;69812;42.632;23.440;2024-01-16T05:53:38;2.80;;;1.38;;
68178;SDS011;69812;42.632;23.440;2024-01-16T05:56:04;2.33;;;1.50;;
68178;SDS011;69812;42.632;23.440;2024-01-16T05:58:29;2.28;;;1.80;;
68178;SDS011;69812;42.632;23.440;2024-01-16T06:01:00;3.63;;;1.48;;
68178;SDS011;69812;42.632;23.440;2024-01-16T06:03:26;3.30;;;1.40;;
68178;SDS011;69812;42.632;23.440;2024-01-16T06:05:51;2.08;;;1.40;;
68178;SDS011;69812;42.632;23.440;2024-01-16T06:08:17;1.88;;;1.40;;
68178;SDS011;69812;42.632;23.440;2024-01-16T06:10:42;1.65;;;1.20;;
68178;SDS011;69812;42.632;23.440;2024-01-16T06:13:08;2.78;;;1.92;;
68178;SDS011;69812;42.632;23.440;2024-01-16T06:15:34;3.45;;;1.73;;
68178;SDS011;69812;42.632;23.440;2024-01-16T06:17:59;3.03;;;1.80;;
68178;SDS011;69812;42.632;23.440;2024-01-16T06:20:25;2.35;;;1.50;;
68178;SDS011;69812;42.632;23.440;2024-01-16T06:22:50;2.80;;;1.63;;
68178;SDS011;69812;42.632;23.440;2024-01-16T06:25:16;2.53;;;1.60;;
68178;SDS011;69812;42.632;23.440;2024-01-16T06:27:41;3.13;;;1.63;;
68178;SDS011;69812;42.632;23.440;2024-01-16T06:30:07;2.65;;;1.45;;
68178;SDS011;69812;42.632;23.440;2024-01-16T06:32:33;3.15;;;1.52;;
68178;SDS011;69812;42.632;23.440;2024-01-16T06:34:58;2.95;;;1.45;;
68178;SDS011;69812;42.632;23.440;2024-01-16T06:37:24;2.13;;;1.30;;
68178;SDS011;69812;42.632;23.440;2024-01-16T06:39:49;1.98;;;1.25;;
68178;SDS011;69812;42.632;23.440;2024-01-16T06:42:14;2.83;;;1.40;;
68178;SDS011;69812;42.632;23.440;2024-01-16T06:44:40;2.75;;;1.70;;
68178;SDS011;69812;42.632;23.440;2024-01-16T06:47:05;2.88;;;1.65;;
68178;SDS011;69812;42.632;23.440;2024-01-16T06:49:31;1.88;;;1.33;;
68178;SDS011;69812;42.632;23.440;2024-01-16T06:51:56;2.45;;;1.00;;
68178;SDS011;69812;42.632;23.440;2024-01-16T06:54:22;2.70;;;1.33;;
68178;SDS011;69812;42.632;23.440;2024-01-16T06:56:48;2.03;;;1.05;;
68178;SDS011;69812;42.632;23.440;2024-01-16T06:59:14;3.20;;;1.73;;
68178;SDS011;69812;42.632;23.440;2024-01-16T07:01:41;1.77;;;1.23;;
68178;SDS011;69812;42.632;23.440;2024-01-16T07:04:06;1.88;;;1.40;;
68178;SDS011;69812;42.632;23.440;2024-01-16T07:06:32;2.38;;;1.35;;
68178;SDS011;69812;42.632;23.440;2024-01-16T07:08:57;2.55;;;1.40;;
68178;SDS011;69812;42.632;23.440;2024-01-16T07:11:22;2.78;;;1.40;;
68178;SDS011;69812;42.632;23.440;2024-01-16T07:13:48;2.47;;;1.30;;
68178;SDS011;69812;42.632;23.440;2024-01-16T07:16:13;2.40;;;1.05;;
68178;SDS011;69812;42.632;23.440;2024-01-16T07:18:39;2.20;;;1.30;;
68178;SDS011;69812;42.632;23.440;2024-01-16T07:21:15;3.22;;;1.50;;
68178;SDS011;69812;42.632;23.440;2024-01-16T07:23:44;3.20;;;1.38;;
68178;SDS011;69812;42.632;23.440;2024-01-16T07:26:09;2.42;;;1.73;;
68178;SDS011;69812;42.632;23.440;2024-01-16T07:28:35;2.80;;;1.42;;
68178;SDS011;69812;42.632;23.440;2024-01-16T07:31:00;3.22;;;1.88;;
68178;SDS011;69812;42.632;23.440;2024-01-16T07:33:25;1.90;;;1.30;;
68178;SDS011;69812;42.632;23.440;2024-01-16T07:35:51;2.63;;;1.70;;
68178;SDS011;69812;42.632;23.440;2024-01-16T07:38:17;1.83;;;1.38;;
68178;SDS011;69812;42.632;23.440;2024-01-16T07:40:42;2.20;;;1.65;;
68178;SDS011;69812;42.632;23.440;2024-01-16T07:43:08;2.63;;;1.42;;
68178;SDS011;69812;42.632;23.440;2024-01-16T07:45:33;2.13;;;1.27;;
68178;SDS011;69812;42.632;23.440;2024-01-16T07:47:59;2.40;;;1.25;;
68178;SDS011;69812;42.632;23.440;2024-01-16T07:50:26;2.10;;;1.40;;
68178;SDS011;69812;42.632;23.440;2024-01-16T07:52:52;3.60;;;1.60;;
68178;SDS011;69812;42.632;23.440;2024-01-16T07:55:17;3.28;;;1.45;;
68178;SDS011;69812;42.632;23.440;2024-01-16T07:57:43;2.10;;;1.10;;
68178;SDS011;69812;42.632;23.440;2024-01-16T08:00:09;2.97;;;1.20;;
68178;SDS011;69812;42.632;23.440;2024-01-16T08:02:37;2.10;;;1.10;;
68178;SDS011;69812;42.632;23.440;2024-01-16T08:05:03;1.60;;;1.00;;
68178;SDS011;69812;42.632;23.440;2024-01-16T08:07:29;2.15;;;1.23;;
68178;SDS011;69812;42.632;23.440;2024-01-16T08:09:55;2.33;;;1.33;;
68178;SDS011;69812;42.632;23.440;2024-01-16T08:12:21;2.00;;;1.20;;
68178;SDS011;69812;42.632;23.440;2024-01-16T08:14:46;2.75;;;1.55;;
68178;SDS011;69812;42.632;23.440;2024-01-16T08:17:12;2.38;;;1.67;;
68178;SDS011;69812;42.632;23.440;2024-01-16T08:19:37;2.50;;;1.70;;
68178;SDS011;69812;42.632;23.440;2024-01-16T08:22:03;3.33;;;1.63;;
68178;SDS011;69812;42.632;23.440;2024-01-16T08:24:29;4.10;;;1.35;;
68178;SDS011;69812;42.632;23.440;2024-01-16T08:26:54;2.47;;;1.40;;
68178;SDS011;69812;42.632;23.440;2024-01-16T08:29:22;4.15;;;1.55;;
68178;SDS011;69812;42.632;23.440;2024-01-16T08:31:48;3.33;;;1.83;;
68178;SDS011;69812;42.632;23.440;2024-01-16T08:34:13;2.47;;;1.20;;
68178;SDS011;69812;42.632;23.440;2024-01-16T08:36:39;3.17;;;1.52;;
68178;SDS011;69812;42.632;23.440;2024-01-16T08:39:05;2.08;;;1.20;;
68178;SDS011;69812;42.632;23.440;2024-01-16T08:41:30;2.72;;;1.75;;
68178;SDS011;69812;42.632;23.440;2024-01-16T08:43:56;1.98;;;1.25;;
68178;SDS011;69812;42.632;23.440;2024-01-16T08:46:21;2.65;;;1.83;;
68178;SDS011;69812;42.632;23.440;2024-01-16T08:48:47;1.92;;;1.25;;
68178;SDS011;69812;42.632;23.440;2024-01-16T08:51:13;2.92;;;1.60;;
68178;SDS011;69812;42.632;23.440;2024-01-16T08:53:39;3.65;;;1.75;;
68178;SDS011;69812;42.632;23.440;2024-01-16T08:56:04;4.55;;;1.38;;
68178;SDS011;69812;42.632;23.440;2024-01-16T08:58:33;2.63;;;1.52;;
68178;SDS011;69812;42.632;23.440;2024-01-16T09:01:02;2.40;;;1.55;;
68178;SDS011;69812;42.632;23.440;2024-01-16T09:03:30;3.90;;;1.90;;
68178;SDS011;69812;42.632;23.440;2024-01-16T09:05:55;3.17;;;1.60;;
68178;SDS011;69812;42.632;23.440;2024-01-16T09:08:23;2.92;;;1.80;;
68178;SDS011;69812;42.632;23.440;2024-01-16T09:10:48;2.83;;;1.52;;
68178;SDS011;69812;42.632;23.440;2024-01-16T09:13:14;2.28;;;1.35;;
68178;SDS011;69812;42.632;23.440;2024-01-16T09:15:39;3.13;;;1.40;;
68178;SDS011;69812;42.632;23.440;2024-01-16T09:18:04;3.40;;;1.55;;
68178;SDS011;69812;42.632;23.440;2024-01-16T09:20:31;7.40;;;1.83;;
68178;SDS011;69812;42.632;23.440;2024-01-16T09:22:56;2.65;;;1.27;;
68178;SDS011;69812;42.632;23.440;2024-01-16T09:25:22;1.92;;;1.20;;
68178;SDS011;69812;42.632;23.440;2024-01-16T09:27:50;2.53;;;1.15;;
68178;SDS011;69812;42.632;23.440;2024-01-16T09:30:16;1.95;;;1.33;;
68178;SDS011;69812;42.632;23.440;2024-01-16T09:32:43;3.28;;;1.45;;
68178;SDS011;69812;42.632;23.440;2024-01-16T09:35:10;3.38;;;1.42;;
68178;SDS011;69812;42.632;23.440;2024-01-16T09:37:36;2.45;;;1.15;;
68178;SDS011;69812;42.632;23.440;2024-01-16T09:40:01;2.10;;;1.00;;
68178;SDS011;69812;42.632;23.440;2024-01-16T09:42:28;2.80;;;1.20;;
68178;SDS011;69812;42.632;23.440;2024-01-16T09:44:53;2.97;;;1.58;;
68178;SDS011;69812;42.632;23.440;2024-01-16T09:47:20;5.38;;;1.60;;
68178;SDS011;69812;42.632;23.440;2024-01-16T09:49:46;3.92;;;1.30;;
68178;SDS011;69812;42.632;23.440;2024-01-16T09:52:14;2.67;;;1.38;;
68178;SDS011;69812;42.632;23.440;2024-01-16T09:54:39;2.78;;;1.60;;
68178;SDS011;69812;42.632;23.440;2024-01-16T09:57:06;4.97;;;1.65;;
68178;SDS011;69812;42.632;23.440;2024-01-16T09:59:32;2.40;;;1.63;;
68178;SDS011;69812;42.632;23.440;2024-01-16T10:02:00;2.95;;;1.70;;
68178;SDS011;69812;42.632;23.440;2024-01-16T10:04:30;4.40;;;1.48;;
68178;SDS011;69812;42.632;23.440;2024-01-16T10:06:56;2.97;;;1.40;;
68178;SDS011;69812;42.632;23.440;2024-01-16T10:09:23;2.65;;;1.52;;
68178;SDS011;69812;42.632;23.440;2024-01-16T10:11:51;3.67;;;1.73;;
68178;SDS011;69812;42.632;23.440;2024-01-16T10:14:17;3.33;;;1.65;;
68178;SDS011;69812;42.632;23.440;2024-01-16T10:17:02;3.38;;;1.70;;
68178;SDS011;69812;42.632;23.440;2024-01-16T10:19:34;2.92;;;1.95;;
68178;SDS011;69812;42.632;23.440;2024-01-16T10:22:12;4.30;;;2.10;;
68178;SDS011;69812;42.632;23.440;2024-01-16T10:24:37;3.67;;;1.70;;
68178;SDS011;69812;42.632;23.440;2024-01-16T10:27:03;2.53;;;1.52;;
68178;SDS011;69812;42.632;23.440;2024-01-16T10:29:28;3.03;;;1.77;;
68178;SDS011;69812;42.632;23.440;2024-01-16T10:31:56;4.43;;;1.50;;
68178;SDS011;69812;42.632;23.440;2024-01-16T10:34:22;4.93;;;1.85;;
68178;SDS011;69812;42.632;23.440;2024-01-16T10:36:49;2.72;;;1.48;;
68178;SDS011;69812;42.632;23.440;2024-01-16T10:39:16;3.85;;;1.92;;
68178;SDS011;69812;42.632;23.440;2024-01-16T10:41:42;5.15;;;2.08;;
68178;SDS011;69812;42.632;23.440;2024-01-16T10:44:18;3.58;;;1.63;;
68178;SDS011;69812;42.632;23.440;2024-01-16T10:46:44;2.90;;;1.65;;
68178;SDS011;69812;42.632;23.440;2024-01-16T10:49:11;2.88;;;1.83;;
68178;SDS011;69812;42.632;23.440;2024-01-16T10:51:37;5.35;;;2.25;;
68178;SDS011;69812;42.632;23.440;2024-01-16T10:54:05;3.88;;;1.83;;
68178;SDS011;69812;42.632;23.440;2024-01-16T10:56:31;2.90;;;1.55;;
68178;SDS011;69812;42.632;23.440;2024-01-16T10:59:00;2.17;;;1.27;;
68178;SDS011;69812;42.632;23.440;2024-01-16T11:01:30;3.50;;;1.80;;
68178;SDS011;69812;42.632;23.440;2024-01-16T11:03:56;3.55;;;1.50;;
68178;SDS011;69812;42.632;23.440;2024-01-16T11:06:24;4.25;;;1.98;;
68178;SDS011;69812;42.632;23.440;2024-01-16T11:08:50;5.60;;;1.75;;
68178;SDS011;69812;42.632;23.440;2024-01-16T11:11:17;3.47;;;1.50;;
68178;SDS011;69812;42.632;23.440;2024-01-16T11:13:43;2.67;;;1.50;;
68178;SDS011;69812;42.632;23.440;2024-01-16T11:16:11;2.78;;;1.55;;
68178;SDS011;69812;42.632;23.440;2024-01-16T11:18:37;3.58;;;1.70;;
68178;SDS011;69812;42.632;23.440;2024-01-16T11:21:02;4.07;;;1.88;;
68178;SDS011;69812;42.632;23.440;2024-01-16T11:23:31;3.10;;;1.40;;
68178;SDS011;69812;42.632;23.440;2024-01-16T11:25:56;2.78;;;1.42;;
68178;SDS011;69812;42.632;23.440;2024-01-16T11:28:26;4.30;;;1.73;;
68178;SDS011;69812;42.632;23.440;2024-01-16T11:30:52;4.15;;;1.60;;
68178;SDS011;69812;42.632;23.440;2024-01-16T11:35:58;3.38;;;1.50;;
68178;SDS011;69812;42.632;23.440;2024-01-16T11:38:25;3.38;;;1.48;;
68178;SDS011;69812;42.632;23.440;2024-01-16T11:40:54;2.60;;;1.33;;
68178;SDS011;69812;42.632;23.440;2024-01-16T11:46:05;3.28;;;2.05;;
68178;SDS011;69812;42.632;23.440;2024-01-16T11:48:32;5.03;;;1.88;;
68178;SDS011;69812;42.632;23.440;2024-01-16T11:50:58;5.35;;;2.10;;
68178;SDS011;69812;42.632;23.440;2024-01-16T12:01:34;4.05;;;1.75;;
68178;SDS011;69812;42.632;23.440;2024-01-16T12:04:07;3.47;;;1.63;;
68178;SDS011;69812;42.632;23.440;2024-01-16T12:06:34;5.15;;;1.90;;
68178;SDS011;69812;42.632;23.440;2024-01-16T12:12:02;4.50;;;1.35;;
68178;SDS011;69812;42.632;23.440;2024-01-16T12:14:28;2.80;;;1.40;;
68178;SDS011;69812;42.632;23.440;2024-01-16T12:17:12;3.88;;;1.70;;
68178;SDS011;69812;42.632;23.440;2024-01-16T12:19:39;3.35;;;1.50;;
68178;SDS011;69812;42.632;23.440;2024-01-16T12:22:10;4.30;;;2.10;;
68178;SDS011;69812;42.632;23.440;2024-01-16T12:24:38;4.15;;;1.92;;
68178;SDS011;69812;42.632;23.440;2024-01-16T12:27:04;2.85;;;1.90;;
68178;SDS011;69812;42.632;23.440;2024-01-16T12:29:30;4.30;;;2.00;;
68178;SDS011;69812;42.632;23.440;2024-01-16T12:32:09;4.70;;;1.95;;
68178;SDS011;69812;42.632;23.440;2024-01-16T12:34:43;4.07;;;2.15;;
68178;SDS011;69812;42.632;23.440;2024-01-16T12:37:15;3.70;;;1.73;;
68178;SDS011;69812;42.632;23.440;2024-01-16T12:39:40;7.25;;;2.08;;
68178;SDS011;69812;42.632;23.440;2024-01-16T12:42:09;5.38;;;2.30;;
68178;SDS011;69812;42.632;23.440;2024-01-16T12:44:36;5.22;;;2.25;;
68178;SDS011;69812;42.632;23.440;2024-01-16T12:47:02;7.32;;;2.10;;
68178;SDS011;69812;42.632;23.440;2024-01-16T12:49:28;5.03;;;2.03;;
68178;SDS011;69812;42.632;23.440;2024-01-16T12:54:46;5.03;;;2.35;;
68178;SDS011;69812;42.632;23.440;2024-01-16T12:57:19;3.55;;;1.75;;
68178;SDS011;69812;42.632;23.440;2024-01-16T12:59:45;6.50;;;2.42;;
68178;SDS011;69812;42.632;23.440;2024-01-16T13:02:19;4.20;;;2.10;;
68178;SDS011;69812;42.632;23.440;2024-01-16T13:04:47;4.70;;;2.30;;
68178;SDS011;69812;42.632;23.440;2024-01-16T13:07:21;6.03;;;2.03;;
68178;SDS011;69812;42.632;23.440;2024-01-16T13:09:47;5.38;;;2.67;;
68178;SDS011;69812;42.632;23.440;2024-01-16T13:12:19;5.63;;;2.13;;
68178;SDS011;69812;42.632;23.440;2024-01-16T13:14:45;5.50;;;2.10;;
68178;SDS011;69812;42.632;23.440;2024-01-16T13:17:10;4.85;;;1.80;;
68178;SDS011;69812;42.632;23.440;2024-01-16T13:19:35;5.93;;;2.55;;
68178;SDS011;69812;42.632;23.440;2024-01-16T13:22:01;4.18;;;2.00;;
68178;SDS011;69812;42.632;23.440;2024-01-16T13:24:27;3.75;;;2.17;;
68178;SDS011;69812;42.632;23.440;2024-01-16T13:26:52;5.53;;;2.15;;
68178;SDS011;69812;42.632;23.440;2024-01-16T13:29:18;5.38;;;1.80;;
68178;SDS011;69812;42.632;23.440;2024-01-16T13:31:44;4.25;;;1.80;;
68178;SDS011;69812;42.632;23.440;2024-01-16T13:34:09;3.88;;;2.00;;
68178;SDS011;69812;42.632;23.440;2024-01-16T13:36:35;5.70;;;2.40;;
68178;SDS011;69812;42.632;23.440;2024-01-16T13:39:01;4.82;;;2.25;;
68178;SDS011;69812;42.632;23.440;2024-01-16T13:41:26;4.88;;;2.33;;
68178;SDS011;69812;42.632;23.440;2024-01-16T13:43:52;5.47;;;2.17;;
68178;SDS011;69812;42.632;23.440;2024-01-16T13:46:18;6.28;;;2.10;;
68178;SDS011;69812;42.632;23.440;2024-01-16T13:48:43;4.70;;;2.17;;
68178;SDS011;69812;42.632;23.440;2024-01-16T13:51:10;4.82;;;2.22;;
68178;SDS011;69812;42.632;23.440;2024-01-16T13:53:36;3.72;;;2.00;;
68178;SDS011;69812;42.632;23.440;2024-01-16T13:56:01;5.40;;;2.28;;
68178;SDS011;69812;42.632;23.440;2024-01-16T13:58:26;4.28;;;1.80;;
68178;SDS011;69812;42.632;23.440;2024-01-16T14:00:52;5.22;;;2.28;;
68178;SDS011;69812;42.632;23.440;2024-01-16T14:03:18;4.60;;;2.30;;
68178;SDS011;69812;42.632;23.440;2024-01-16T14:05:45;9.02;;;2.15;;
68178;SDS011;69812;42.632;23.440;2024-01-16T14:08:14;5.45;;;2.65;;
68178;SDS011;69812;42.632;23.440;2024-01-16T14:10:39;3.92;;;2.22;;
68178;SDS011;69812;42.632;23.440;2024-01-16T14:13:05;3.80;;;2.20;;
68178;SDS011;69812;42.632;23.440;2024-01-16T14:15:30;5.57;;;2.20;;
68178;SDS011;69812;42.632;23.440;2024-01-16T14:17:56;5.35;;;1.90;;
68178;SDS011;69812;42.632;23.440;2024-01-16T14:20:23;3.72;;;2.00;;
68178;SDS011;69812;42.632;23.440;2024-01-16T14:22:51;5.10;;;2.13;;
68178;SDS011;69812;42.632;23.440;2024-01-16T14:25:17;4.78;;;2.17;;
68178;SDS011;69812;42.632;23.440;2024-01-16T14:27:44;5.15;;;2.38;;
68178;SDS011;69812;42.632;23.440;2024-01-16T14:30:14;4.18;;;2.10;;
68178;SDS011;69812;42.632;23.440;2024-01-16T14:32:41;4.45;;;2.33;;
68178;SDS011;69812;42.632;23.440;2024-01-16T14:35:08;7.65;;;2.63;;
68178;SDS011;69812;42.632;23.440;2024-01-16T14:37:35;5.88;;;2.97;;
68178;SDS011;69812;42.632;23.440;2024-01-16T14:40:01;7.30;;;2.95;;
68178;SDS011;69812;42.632;23.440;2024-01-16T14:42:31;6.88;;;3.42;;
68178;SDS011;69812;42.632;23.440;2024-01-16T14:44:59;6.13;;;2.42;;
68178;SDS011;69812;42.632;23.440;2024-01-16T14:47:25;5.32;;;2.78;;